createdAt,value
2022-07-25T00:03:23.651Z,54.74
2022-07-25T00:08:26.805Z,54.77
2022-07-25T00:13:29.602Z,54.93
2022-07-25T00:18:33.831Z,55.04
2022-07-25T00:23:36.708Z,55.35
2022-07-25T00:28:39.619Z,54.91
2022-07-25T00:33:43.823Z,54.87
2022-07-25T00:38:46.685Z,55.21
2022-07-25T00:43:49.531Z,55.27
2022-07-25T00:48:53.776Z,54.94
2022-07-25T00:53:58.436Z,54.70
2022-07-25T00:59:01.339Z,54.82
2022-07-25T01:04:07.008Z,55.20
2022-07-25T01:09:10.679Z,54.90
2022-07-25T01:14:13.522Z,54.91
2022-07-25T01:19:17.864Z,55.46
2022-07-25T01:24:22.025Z,54.73
2022-07-25T01:29:24.851Z,54.69
2022-07-25T01:34:27.664Z,54.46
2022-07-25T01:39:31.882Z,54.64
2022-07-25T01:44:34.876Z,54.26
2022-07-25T01:49:37.789Z,54.08
2022-07-25T01:54:42.460Z,53.81
2022-07-25T01:59:46.420Z,53.53
2022-07-25T02:04:49.780Z,53.33
2022-07-25T02:09:56.841Z,53.60
2022-07-25T02:15:00.025Z,53.53
2022-07-25T02:20:02.867Z,53.35
2022-07-25T02:25:08.102Z,53.25
2022-07-25T02:30:11.674Z,53.18
2022-07-25T02:35:14.509Z,53.16
2022-07-25T02:40:18.735Z,53.02
2022-07-25T02:45:21.967Z,53.21
2022-07-25T02:50:24.873Z,53.45
2022-07-25T02:55:29.357Z,53.22
2022-07-25T03:00:32.145Z,53.02
2022-07-25T03:05:35.103Z,52.88
2022-07-25T03:10:39.296Z,52.95
2022-07-25T03:15:42.186Z,52.70
2022-07-25T03:20:45.050Z,52.56
2022-07-25T03:25:49.263Z,52.66
2022-07-25T03:30:52.510Z,52.70
2022-07-25T03:35:56.433Z,52.71
2022-07-25T03:41:00.626Z,53.03
2022-07-25T03:46:03.566Z,52.73
2022-07-25T03:51:07.398Z,53.03
2022-07-25T03:56:11.788Z,52.65
2022-07-25T04:01:14.826Z,52.51
2022-07-25T04:06:17.925Z,52.40
2022-07-25T04:11:22.209Z,52.12
2022-07-25T04:16:25.878Z,52.32
2022-07-25T04:21:30.987Z,52.11
2022-07-25T04:26:35.266Z,52.48
2022-07-25T04:31:38.224Z,52.00
2022-07-25T04:36:41.127Z,51.50
2022-07-25T04:41:45.363Z,51.60
2022-07-25T04:46:48.166Z,51.75
2022-07-25T04:51:50.995Z,51.31
2022-07-25T04:56:55.413Z,50.88
2022-07-25T05:01:58.496Z,50.66
2022-07-25T05:07:01.279Z,50.29
2022-07-25T05:12:05.725Z,50.34
2022-07-25T05:17:08.708Z,50.28
2022-07-25T05:22:11.535Z,50.65
2022-07-25T05:27:15.818Z,49.67
2022-07-25T05:32:18.658Z,49.10
2022-07-25T05:37:21.566Z,48.95
2022-07-25T05:42:25.810Z,48.70
2022-07-25T05:47:28.695Z,48.12
2022-07-25T05:52:31.621Z,47.58
2022-07-25T05:57:36.575Z,46.68
2022-07-25T06:02:39.589Z,46.58
2022-07-25T06:07:42.914Z,46.84
2022-07-25T06:12:47.151Z,46.56
2022-07-25T06:17:50.333Z,46.12
2022-07-25T06:22:53.607Z,45.95
2022-07-25T06:27:57.964Z,45.83
2022-07-25T06:33:00.796Z,45.26
2022-07-25T06:38:04.382Z,44.27
2022-07-25T06:43:08.613Z,44.23
2022-07-25T06:48:11.437Z,43.77
2022-07-25T06:53:14.274Z,43.79
2022-07-25T06:58:18.481Z,43.64
2022-07-25T07:03:25.701Z,42.96
2022-07-25T07:08:28.546Z,42.25
2022-07-25T07:13:32.774Z,41.57
2022-07-25T07:18:35.671Z,41.01
2022-07-25T07:23:38.562Z,40.10
2022-07-25T07:28:44.073Z,40.02
2022-07-25T07:33:47.152Z,38.37
2022-07-25T07:38:49.981Z,38.32
2022-07-25T07:43:54.161Z,36.79
2022-07-25T07:48:57.093Z,35.62
2022-07-25T07:54:17.421Z,34.64
2022-07-25T07:59:21.982Z,33.28
2022-07-25T08:04:24.836Z,34.81
2022-07-25T08:09:27.778Z,36.80
2022-07-25T08:14:32.970Z,36.79
2022-07-25T08:19:36.072Z,37.14
2022-07-25T08:24:38.858Z,36.31
2022-07-25T08:29:43.063Z,35.82
2022-07-25T08:34:45.945Z,35.81
2022-07-25T08:39:50.597Z,35.27
2022-07-25T08:44:59.661Z,35.05
2022-07-25T08:50:04.823Z,34.93
2022-07-25T08:55:10.670Z,34.96
2022-07-25T09:00:19.397Z,35.70
2022-07-25T09:05:23.158Z,35.04
2022-07-25T09:10:28.452Z,35.75
2022-07-25T09:15:34.894Z,36.18
2022-07-25T09:20:41.103Z,35.32
2022-07-25T09:25:44.175Z,35.55
2022-07-25T09:30:59.341Z,35.00
2022-07-25T09:36:12.050Z,34.88
2022-07-25T09:41:14.930Z,34.70
2022-07-25T09:46:19.642Z,34.08
2022-07-25T09:51:23.726Z,34.36
2022-07-25T09:56:26.634Z,34.84
2022-07-25T10:01:38.225Z,34.03
2022-07-25T10:06:49.517Z,33.78
2022-07-25T10:12:05.912Z,35.41
2022-07-25T10:17:10.211Z,35.81
2022-07-25T10:22:13.633Z,36.53
2022-07-25T10:27:24.317Z,35.92
2022-07-25T10:32:35.298Z,36.33
2022-07-25T10:37:38.232Z,35.32
2022-07-25T10:42:46.242Z,36.27
2022-07-25T10:47:56.123Z,36.28
2022-07-25T10:53:00.630Z,36.79
2022-07-25T10:58:21.623Z,35.10
2022-07-25T11:03:27.144Z,33.98
2022-07-25T11:08:33.429Z,32.92
2022-07-25T11:13:40.149Z,31.38
2022-07-25T11:18:44.303Z,32.17
2022-07-25T11:23:51.747Z,31.35
2022-07-25T11:28:54.632Z,32.24
2022-07-25T11:33:58.907Z,33.36
2022-07-25T11:39:01.946Z,34.10
2022-07-25T11:44:05.502Z,35.43
2022-07-25T11:49:10.098Z,35.72
2022-07-25T11:54:13.654Z,36.09
2022-07-25T11:59:16.817Z,36.38
2022-07-25T12:04:21.710Z,36.50
2022-07-25T12:09:24.558Z,37.37
2022-07-25T12:14:30.101Z,37.30
2022-07-25T12:19:36.534Z,36.63
2022-07-25T12:24:39.344Z,35.36
2022-07-25T12:29:42.151Z,34.65
2022-07-25T12:34:46.548Z,34.18
2022-07-25T12:39:49.445Z,32.94
2022-07-25T12:44:52.759Z,32.48
2022-07-25T12:49:57.214Z,33.08
2022-07-25T12:55:00.262Z,33.18
2022-07-25T13:00:03.494Z,33.37
2022-07-25T13:05:08.783Z,34.22
2022-07-25T13:10:12.672Z,33.95
2022-07-25T13:15:15.532Z,33.00
2022-07-25T13:20:19.831Z,33.53
2022-07-25T13:25:22.986Z,33.61
2022-07-25T13:30:26.149Z,34.36
2022-07-25T13:35:36.503Z,35.35
2022-07-25T13:40:42.258Z,35.40
2022-07-25T13:45:45.186Z,36.03
2022-07-25T13:50:49.452Z,36.04
2022-07-25T13:55:52.852Z,36.03
2022-07-25T14:00:56.172Z,36.76
2022-07-25T14:06:00.483Z,37.89
2022-07-25T14:11:05.525Z,37.77
2022-07-25T14:16:08.767Z,38.16
2022-07-25T14:21:13.108Z,39.43
2022-07-25T14:26:16.054Z,38.86
2022-07-25T14:31:19.053Z,38.18
2022-07-25T14:36:23.365Z,37.84
2022-07-25T14:41:26.218Z,39.17
2022-07-25T14:46:29.064Z,40.37
2022-07-25T14:51:33.885Z,38.74
2022-07-25T14:56:36.777Z,39.86
2022-07-25T15:01:40.808Z,38.58
2022-07-25T15:06:44.980Z,37.89
2022-07-25T15:11:47.987Z,39.28
2022-07-25T15:16:50.926Z,40.90
2022-07-25T15:21:55.148Z,40.87
2022-07-25T15:26:58.396Z,40.76
2022-07-25T15:32:03.518Z,39.20
2022-07-25T15:37:07.821Z,39.79
2022-07-25T15:42:10.721Z,41.63
2022-07-25T15:47:13.611Z,41.46
2022-07-25T15:52:18.018Z,41.13
2022-07-25T15:57:20.926Z,41.72
2022-07-25T16:02:23.876Z,41.88
2022-07-25T16:07:28.799Z,42.56
2022-07-25T16:12:31.657Z,43.62
2022-07-25T16:17:35.300Z,44.18
2022-07-25T16:22:40.100Z,44.71
2022-07-25T16:27:42.905Z,44.22
2022-07-25T16:32:45.799Z,44.91
2022-07-25T16:37:49.999Z,44.73
2022-07-25T16:42:55.676Z,46.26
2022-07-25T16:47:58.519Z,46.79
2022-07-25T16:53:02.660Z,48.79
2022-07-25T16:58:05.550Z,49.20
2022-07-25T17:03:08.469Z,48.07
2022-07-25T17:08:12.665Z,48.73
2022-07-25T17:13:15.856Z,47.49
2022-07-25T17:18:18.747Z,48.21
2022-07-25T17:23:22.976Z,48.43
2022-07-25T17:28:26.430Z,48.50
2022-07-25T17:33:29.363Z,47.98
2022-07-25T17:38:34.925Z,47.89
2022-07-25T17:43:38.613Z,47.82
2022-07-25T17:48:41.992Z,43.07
2022-07-25T17:53:46.539Z,40.80
2022-07-25T17:58:49.562Z,45.97
2022-07-25T18:03:52.433Z,47.70
2022-07-25T18:08:56.658Z,48.48
2022-07-25T18:13:59.647Z,49.46
2022-07-25T18:19:02.478Z,49.50
2022-07-25T18:24:07.760Z,48.16
2022-07-25T18:29:10.909Z,48.31
2022-07-25T18:34:13.910Z,48.68
2022-07-25T18:39:18.196Z,48.28
2022-07-25T18:44:21.134Z,48.72
2022-07-25T18:49:24.090Z,49.39
2022-07-25T18:54:28.294Z,49.49
2022-07-25T18:59:31.261Z,49.23
2022-07-25T19:04:34.117Z,49.55
2022-07-25T19:09:38.421Z,51.70
2022-07-25T19:14:41.726Z,50.38
2022-07-25T19:19:44.654Z,50.72
2022-07-25T19:24:49.006Z,50.62
2022-07-25T19:29:52.035Z,51.85
2022-07-25T19:34:54.893Z,52.00
2022-07-25T19:39:59.110Z,51.60
2022-07-25T19:45:01.986Z,51.23
2022-07-25T19:50:05.572Z,50.99
2022-07-25T19:55:10.997Z,51.35
2022-07-25T20:00:14.592Z,51.06
2022-07-25T20:05:17.479Z,50.57
2022-07-25T20:10:21.877Z,49.63
2022-07-25T20:15:24.915Z,49.51
2022-07-25T20:20:27.828Z,49.24
2022-07-25T20:25:32.249Z,49.13
2022-07-25T20:30:35.427Z,48.51
2022-07-25T20:35:39.132Z,48.56
2022-07-25T20:40:49.319Z,47.85
2022-07-25T20:45:52.834Z,48.03
2022-07-25T20:50:55.632Z,47.64
2022-07-25T20:55:59.827Z,48.19
2022-07-25T21:01:03.053Z,49.29
2022-07-25T21:06:06.151Z,48.70
2022-07-25T21:11:11.480Z,48.49
2022-07-25T21:16:14.284Z,47.82
2022-07-25T21:21:17.779Z,48.64
2022-07-25T21:26:21.908Z,49.35
2022-07-25T21:31:25.044Z,49.72
2022-07-25T21:36:28.399Z,50.71
2022-07-25T21:41:32.642Z,50.78
2022-07-25T21:46:35.445Z,50.48
2022-07-25T21:51:40.606Z,50.19
2022-07-25T21:56:45.320Z,50.66
2022-07-25T22:01:48.177Z,51.03
2022-07-25T22:06:50.973Z,52.17
2022-07-25T22:11:56.845Z,51.77
2022-07-25T22:16:59.767Z,51.38
2022-07-25T22:22:04.087Z,50.78
2022-07-25T22:27:08.328Z,51.42
2022-07-25T22:32:11.308Z,52.25
2022-07-25T22:37:14.173Z,52.25
2022-07-25T22:42:18.260Z,51.58
2022-07-25T22:47:21.073Z,51.35
2022-07-25T22:52:23.875Z,51.55
2022-07-25T22:57:28.119Z,51.83
2022-07-25T23:02:30.863Z,51.22
2022-07-25T23:07:34.292Z,51.29
2022-07-25T23:12:38.394Z,52.68
2022-07-25T23:17:41.180Z,51.46
2022-07-25T23:22:43.960Z,52.67
2022-07-25T23:27:49.592Z,52.27
2022-07-25T23:32:52.341Z,52.37
2022-07-25T23:37:55.087Z,52.16
2022-07-25T23:42:59.255Z,52.51
2022-07-25T23:48:02.085Z,54.35
2022-07-25T23:53:04.898Z,54.16
2022-07-25T23:58:09.602Z,53.15
